createdAt,value
2022-12-18T02:42:37.524Z,-3.51
2022-12-18T02:45:04.358Z,-3.56
2022-12-18T02:47:33.851Z,-3.57
2022-12-18T02:50:15.012Z,-3.64
2022-12-18T02:53:19.419Z,-3.60
2022-12-18T02:56:14.943Z,-3.56
2022-12-18T02:58:57.191Z,-3.63
2022-12-18T03:01:32.503Z,-3.65
2022-12-18T03:04:05.495Z,-3.63
2022-12-18T03:06:41.122Z,-3.73
2022-12-18T03:09:12.066Z,-3.77
2022-12-18T03:12:01.489Z,-3.77
2022-12-18T03:14:32.083Z,-3.86
2022-12-18T03:17:02.894Z,-3.88
2022-12-18T03:19:33.029Z,-3.87
2022-12-18T03:22:04.636Z,-3.85
2022-12-18T03:24:34.208Z,-3.87
2022-12-18T03:27:03.773Z,-3.89
2022-12-18T03:29:35.547Z,-3.89
2022-12-18T03:32:30.516Z,-3.87
2022-12-18T03:35:01.483Z,-3.79
2022-12-18T03:37:28.038Z,-3.88
2022-12-18T03:39:54.605Z,-3.87
2022-12-18T03:42:53.936Z,-3.88
2022-12-18T03:45:20.419Z,-3.84
2022-12-18T03:47:59.001Z,-3.89
2022-12-18T03:50:25.419Z,-3.92
2022-12-18T03:53:28.609Z,-3.96
2022-12-18T03:55:57.416Z,-3.95
2022-12-18T03:58:27.417Z,-4.03
2022-12-18T04:00:57.407Z,-3.98
2022-12-18T04:03:26.627Z,-4.00
2022-12-18T04:05:55.198Z,-4.00
2022-12-18T04:08:22.877Z,-4.02
2022-12-18T04:10:49.379Z,-4.05
2022-12-18T04:13:28.557Z,-4.10
2022-12-18T04:15:55.117Z,-4.10
2022-12-18T04:18:21.679Z,-4.12
2022-12-18T04:20:48.210Z,-4.08
2022-12-18T04:23:14.858Z,-4.13
2022-12-18T04:25:41.357Z,-4.12
2022-12-18T04:28:07.967Z,-4.15
2022-12-18T04:30:34.482Z,-4.12
2022-12-18T04:33:00.957Z,-4.09
2022-12-18T04:35:27.714Z,-4.07
2022-12-18T04:37:54.213Z,-4.11
2022-12-18T04:40:20.695Z,-4.15
2022-12-18T04:42:47.274Z,-4.21
2022-12-18T04:45:13.885Z,-4.23
2022-12-18T04:47:40.393Z,-4.21
2022-12-18T04:50:07.338Z,-4.25
2022-12-18T04:52:33.884Z,-4.15
2022-12-18T04:55:00.395Z,-4.24
2022-12-18T04:57:27.202Z,-4.28
2022-12-18T04:59:53.725Z,-4.24
2022-12-18T05:02:20.312Z,-4.30
2022-12-18T05:04:46.900Z,-4.22
2022-12-18T05:07:13.362Z,-4.20
2022-12-18T05:09:39.831Z,-4.26
2022-12-18T05:12:06.645Z,-4.29
2022-12-18T05:14:33.132Z,-4.23
2022-12-18T05:17:01.188Z,-4.24
2022-12-18T05:19:27.942Z,-4.31
2022-12-18T05:21:54.427Z,-4.34
2022-12-18T05:24:20.920Z,-4.35
2022-12-18T05:26:47.446Z,-4.35
2022-12-18T05:29:14.190Z,-4.35
2022-12-18T05:31:41.034Z,-4.36
2022-12-18T05:34:09.571Z,-4.32
2022-12-18T05:36:37.403Z,-4.28
2022-12-18T05:39:04.213Z,-4.26
2022-12-18T05:41:30.995Z,-4.34
2022-12-18T05:43:57.670Z,-4.36
2022-12-18T05:46:25.232Z,-4.35
2022-12-18T05:48:52.083Z,-4.37
2022-12-18T05:51:21.290Z,-4.36
2022-12-18T05:53:47.795Z,-4.46
2022-12-18T05:56:17.263Z,-4.48
2022-12-18T05:58:43.876Z,-4.55
2022-12-18T06:01:16.833Z,-4.54
2022-12-18T06:03:43.886Z,-4.51
2022-12-18T06:06:23.302Z,-4.49
2022-12-18T06:08:50.462Z,-4.51
2022-12-18T06:11:20.465Z,-4.53
2022-12-18T06:13:47.626Z,-4.53
2022-12-18T06:16:14.221Z,-4.48
2022-12-18T06:18:40.765Z,-4.52
2022-12-18T06:21:07.498Z,-4.57
2022-12-18T06:23:34.014Z,-4.54
2022-12-18T06:26:05.421Z,-4.64
2022-12-18T06:28:32.151Z,-4.68
2022-12-18T06:30:58.675Z,-4.62
2022-12-18T10:29:49.256Z,-4.89
2022-12-18T10:32:19.312Z,-5.02
2022-12-18T10:34:54.072Z,-4.97
2022-12-18T10:37:27.551Z,-4.95
2022-12-18T10:40:22.747Z,-4.96
2022-12-18T10:43:05.407Z,-4.93
2022-12-18T10:45:32.132Z,-4.97
2022-12-18T10:47:59.076Z,-4.89
2022-12-18T10:50:53.958Z,-4.84
2022-12-18T10:53:27.368Z,-4.85
2022-12-18T10:55:56.902Z,-4.81
2022-12-18T10:58:34.063Z,-4.76
2022-12-18T11:01:18.852Z,-4.75
2022-12-18T11:03:47.791Z,-4.69
2022-12-18T11:06:15.683Z,-4.74
2022-12-18T11:08:44.446Z,-4.72
2022-12-18T11:11:22.756Z,-4.74
2022-12-18T11:13:57.102Z,-4.69
2022-12-18T11:16:24.899Z,-4.73
2022-12-18T11:18:51.911Z,-4.75
2022-12-18T11:21:18.491Z,-4.86
2022-12-18T11:23:51.508Z,-4.83
2022-12-18T11:26:18.705Z,-4.77
2022-12-18T11:28:47.923Z,-4.76
2022-12-18T11:31:38.740Z,-4.71
2022-12-18T11:34:34.279Z,-4.78
2022-12-18T11:37:04.111Z,-4.79
2022-12-18T11:39:43.519Z,-4.78
2022-12-18T11:42:17.598Z,-4.83
2022-12-18T11:44:48.856Z,-4.83
2022-12-18T11:47:52.630Z,-4.83
2022-12-18T11:50:31.322Z,-4.79
2022-12-18T11:53:01.603Z,-4.77
2022-12-18T11:55:35.024Z,-4.77
2022-12-18T11:58:11.984Z,-4.82
2022-12-18T12:01:32.432Z,-4.80
2022-12-18T12:04:27.360Z,-4.79
2022-12-18T12:07:15.955Z,-4.89
2022-12-18T12:09:51.948Z,-4.99
2022-12-18T12:12:48.754Z,-4.99
2022-12-18T12:15:36.915Z,-4.91
2022-12-18T12:18:32.996Z,-4.93
2022-12-18T12:21:05.294Z,-4.93
2022-12-18T12:23:35.004Z,-4.94
2022-12-18T12:26:24.930Z,-4.82
2022-12-18T12:29:10.759Z,-4.87
2022-12-18T12:32:16.305Z,-4.89
2022-12-18T12:35:17.572Z,-4.93
2022-12-18T12:38:05.794Z,-4.98
2022-12-18T12:40:58.857Z,-5.07
2022-12-18T12:43:50.960Z,-5.20
2022-12-18T12:46:22.065Z,-5.15
2022-12-18T12:48:53.538Z,-5.19
2022-12-18T12:51:24.665Z,-5.20
2022-12-18T12:53:53.853Z,-5.20
2022-12-18T12:56:22.441Z,-5.19
2022-12-18T12:59:26.190Z,-5.09
2022-12-18T13:02:06.204Z,-5.11
2022-12-18T13:04:39.803Z,-5.09
2022-12-18T13:07:27.959Z,-5.12
2022-12-18T13:10:15.492Z,-5.11
2022-12-18T13:12:57.912Z,-5.11
2022-12-18T13:15:44.238Z,-5.06
2022-12-18T13:18:20.062Z,-5.05
2022-12-18T13:21:06.754Z,-5.05
2022-12-18T13:23:40.955Z,-5.08
2022-12-18T13:26:08.676Z,-5.14
2022-12-18T13:28:47.416Z,-5.17
2022-12-18T13:31:15.200Z,-5.28
2022-12-18T13:34:02.014Z,-5.23
2022-12-18T13:36:32.330Z,-5.33
2022-12-18T13:39:26.673Z,-5.27
2022-12-18T13:42:05.964Z,-5.32
2022-12-18T13:47:35.909Z,-5.35
2022-12-18T13:50:24.794Z,-5.32
2022-12-18T13:52:53.423Z,-5.45
2022-12-18T13:55:21.697Z,-5.31
2022-12-18T13:57:48.292Z,-5.34
2022-12-18T14:00:30.093Z,-5.39
2022-12-18T15:02:19.746Z,-5.09
2022-12-18T15:04:46.398Z,-5.11
2022-12-18T15:07:26.560Z,-5.18
2022-12-18T15:10:17.042Z,-5.28
2022-12-18T15:12:49.581Z,-5.12
2022-12-18T15:15:34.565Z,-5.28
2022-12-18T15:18:12.732Z,-5.25
2022-12-18T15:21:08.946Z,-5.15
2022-12-18T15:23:44.581Z,-5.32
2022-12-18T15:26:14.181Z,-5.29
2022-12-18T15:28:40.766Z,-5.24
2022-12-18T15:31:07.578Z,-5.44
2022-12-18T15:33:37.645Z,-5.58
2022-12-18T15:36:09.552Z,-5.52
2022-12-18T15:38:36.342Z,-5.56
2022-12-18T15:41:03.780Z,-5.46
2022-12-18T15:43:37.541Z,-5.52
2022-12-18T15:46:15.827Z,-5.53
2022-12-18T15:48:45.110Z,-5.63
2022-12-18T15:51:32.768Z,-5.61
2022-12-18T15:54:01.978Z,-5.60
2022-12-18T15:56:47.344Z,-5.52
2022-12-18T15:59:17.994Z,-5.56
2022-12-18T16:01:47.157Z,-5.53
2022-12-18T16:04:15.404Z,-5.59
2022-12-18T16:07:13.431Z,-5.53
2022-12-18T16:09:31.112Z,-5.57
2022-12-18T16:11:57.769Z,-5.67
2022-12-18T16:14:29.537Z,-5.67
2022-12-18T16:17:10.034Z,-5.66
2022-12-18T16:19:36.557Z,-5.78
2022-12-18T16:22:03.080Z,-5.65
2022-12-18T16:24:32.939Z,-5.73
2022-12-18T16:27:01.023Z,-5.72
2022-12-18T16:29:29.338Z,-5.90
2022-12-18T16:32:00.470Z,-5.96
2022-12-18T16:34:29.930Z,-5.82
2022-12-18T16:37:07.346Z,-5.89
2022-12-18T16:39:35.370Z,-6.04
2022-12-18T16:42:05.307Z,-6.04
2022-12-18T16:44:33.332Z,-6.02
2022-12-18T16:47:02.934Z,-5.98
2022-12-18T16:49:30.250Z,-6.01
2022-12-18T16:51:56.997Z,-6.04
2022-12-18T16:54:24.014Z,-5.88
2022-12-18T16:56:51.616Z,-5.88
2022-12-18T16:59:18.655Z,-5.83
2022-12-18T17:01:45.267Z,-5.91
2022-12-18T17:04:11.931Z,-5.94
2022-12-18T17:06:44.603Z,-5.93
2022-12-18T17:09:14.949Z,-6.07
2022-12-18T17:11:42.877Z,-6.07
2022-12-18T17:14:14.996Z,-6.26
2022-12-18T17:16:41.887Z,-6.34
2022-12-18T17:19:13.563Z,-6.39
2022-12-18T17:21:40.264Z,-6.63
2022-12-18T17:24:07.732Z,-6.54
2022-12-18T17:26:34.320Z,-6.40
2022-12-18T17:29:00.885Z,-6.54
2022-12-18T17:31:29.889Z,-6.54
2022-12-18T17:33:57.332Z,-6.57
2022-12-18T17:36:24.857Z,-6.57
2022-12-18T17:38:55.155Z,-6.64
2022-12-18T17:41:22.348Z,-6.55
2022-12-18T17:44:03.734Z,-6.77
2022-12-18T17:46:31.949Z,-6.79
2022-12-18T17:48:59.472Z,-6.96
2022-12-18T17:51:26.707Z,-6.92
2022-12-18T17:53:53.463Z,-6.80
2022-12-18T17:56:22.688Z,-6.58
2022-12-18T17:58:50.466Z,-6.63
2022-12-18T18:01:20.995Z,-6.73
2022-12-18T18:03:49.228Z,-6.82
2022-12-18T18:06:20.936Z,-6.71
2022-12-18T18:32:12.861Z,-7.35
2022-12-18T18:34:39.348Z,-7.34
2022-12-18T18:37:05.962Z,-7.42
2022-12-18T18:39:32.728Z,-7.40
2022-12-18T18:41:59.412Z,-7.38
2022-12-18T18:44:26.564Z,-7.45
2022-12-18T18:46:58.156Z,-7.49
2022-12-18T18:49:28.341Z,-7.45
2022-12-18T18:51:55.798Z,-7.49
2022-12-18T18:54:22.701Z,-7.41
2022-12-18T18:59:36.784Z,-7.45
2022-12-18T19:02:04.701Z,-7.52
2022-12-18T19:04:33.010Z,-7.49
2022-12-18T19:06:59.607Z,-7.45
2022-12-18T19:09:27.671Z,-7.41
2022-12-18T19:12:13.767Z,-7.40
2022-12-18T19:14:40.282Z,-7.44
2022-12-18T19:17:06.811Z,-7.45
2022-12-18T19:19:33.799Z,-7.47
2022-12-18T19:22:00.888Z,-7.50
2022-12-18T19:24:27.505Z,-7.51
2022-12-18T19:26:55.371Z,-7.49
2022-12-18T19:29:24.755Z,-7.47
2022-12-18T19:31:51.332Z,-7.40
2022-12-18T19:34:17.828Z,-7.40
2022-12-18T19:36:44.421Z,-7.43
2022-12-18T19:39:15.165Z,-7.47
2022-12-18T19:41:42.957Z,-7.46
2022-12-18T19:44:11.986Z,-7.55
2022-12-18T19:46:41.671Z,-7.61
2022-12-18T19:49:10.648Z,-7.53
2022-12-18T19:51:37.796Z,-7.53
2022-12-18T19:54:04.772Z,-7.50
2022-12-18T19:56:33.837Z,-7.55
2022-12-18T19:59:01.054Z,-7.54
2022-12-18T20:01:29.632Z,-7.59
2022-12-18T20:03:57.404Z,-7.60
2022-12-18T20:06:31.804Z,-7.60
2022-12-18T20:09:01.388Z,-7.52
2022-12-18T20:11:30.036Z,-7.50
2022-12-18T20:13:57.365Z,-7.57
2022-12-18T20:16:24.366Z,-7.62
2022-12-18T20:18:51.422Z,-7.60
2022-12-18T20:21:18.924Z,-7.58
2022-12-18T20:23:46.119Z,-7.63
2022-12-18T20:26:12.956Z,-7.55
2022-12-18T20:28:40.700Z,-7.50
2022-12-18T20:31:13.858Z,-7.54
2022-12-18T20:33:41.652Z,-7.54
2022-12-18T20:36:14.256Z,-7.69
2022-12-18T20:38:42.208Z,-7.76
2022-12-18T20:41:11.938Z,-7.81
2022-12-18T20:43:39.202Z,-7.80
2022-12-18T20:46:09.206Z,-7.75
2022-12-18T20:48:36.317Z,-7.71
2022-12-18T20:51:06.297Z,-7.72
2022-12-18T20:53:34.219Z,-7.71
2022-12-18T20:56:02.197Z,-7.65
2022-12-18T20:58:28.779Z,-7.75
2022-12-18T21:01:13.609Z,-7.69
2022-12-18T21:03:41.591Z,-7.77
2022-12-18T21:06:10.305Z,-7.77
2022-12-18T21:08:37.570Z,-7.81
2022-12-18T21:11:37.660Z,-7.74
2022-12-18T21:14:09.931Z,-7.77
2022-12-18T21:16:36.931Z,-7.73
2022-12-18T21:19:03.818Z,-7.76
2022-12-18T21:21:30.349Z,-7.82
2022-12-18T21:24:04.801Z,-7.77
2022-12-18T21:26:31.958Z,-7.84
2022-12-18T21:29:00.874Z,-7.84
2022-12-18T21:31:30.447Z,-7.90
2022-12-18T21:34:02.348Z,-7.88
2022-12-18T21:36:29.628Z,-7.91
2022-12-18T21:38:56.982Z,-7.92
2022-12-18T21:41:43.359Z,-8.01
2022-12-18T21:44:15.906Z,-7.99
2022-12-18T21:46:52.972Z,-7.98
2022-12-18T21:49:22.593Z,-8.01
2022-12-18T21:51:50.563Z,-7.99
2022-12-18T21:54:17.724Z,-7.92
2022-12-18T21:56:57.471Z,-7.97
2022-12-18T21:59:33.203Z,-7.93
2022-12-18T22:02:04.424Z,-7.97
2022-12-18T22:04:31.160Z,-7.97
2022-12-18T22:07:00.720Z,-8.06
